createdAt,value
2022-10-06T00:04:01.084Z,14.76
2022-10-06T00:09:02.660Z,14.32
2022-10-06T00:14:04.385Z,14.25
2022-10-06T00:19:06.139Z,14.53
2022-10-06T00:24:07.722Z,14.52
2022-10-06T00:29:09.851Z,14.61
2022-10-06T00:34:11.460Z,14.79
2022-10-06T00:39:15.600Z,14.75
2022-10-06T00:44:17.618Z,14.70
2022-10-06T00:49:22.058Z,14.59
2022-10-06T00:54:24.985Z,14.52
2022-10-06T00:59:26.669Z,14.67
2022-10-06T01:04:35.366Z,14.74
2022-10-06T01:09:38.603Z,14.89
2022-10-06T01:14:41.527Z,14.94
2022-10-06T01:20:08.865Z,15.00
2022-10-06T01:25:13.707Z,14.94
2022-10-06T01:30:19.078Z,14.91
2022-10-06T01:35:20.952Z,14.73
2022-10-06T01:40:22.586Z,14.59
2022-10-06T01:45:24.200Z,14.57
2022-10-06T01:50:27.034Z,14.45
2022-10-06T01:55:31.370Z,14.45
2022-10-06T02:00:34.423Z,14.25
2022-10-06T02:05:36.045Z,14.09
2022-10-06T02:10:40.165Z,14.11
2022-10-06T02:15:49.440Z,14.08
2022-10-06T02:20:51.126Z,13.93
2022-10-06T02:26:07.143Z,13.98
2022-10-06T02:31:10.799Z,13.51
2022-10-06T02:36:15.894Z,13.38
2022-10-06T02:41:18.018Z,13.10
2022-10-06T02:46:20.957Z,13.17
2022-10-06T02:51:25.403Z,13.33
2022-10-06T02:56:27.574Z,13.19
2022-10-06T03:01:29.708Z,13.21
2022-10-06T03:06:34.656Z,13.56
2022-10-06T03:11:43.846Z,13.93
2022-10-06T03:16:51.935Z,14.17
2022-10-06T03:22:00.302Z,14.24
2022-10-06T03:27:11.527Z,14.21
2022-10-06T03:32:13.529Z,14.18
2022-10-06T03:37:15.525Z,14.09
2022-10-06T03:42:17.201Z,14.03
2022-10-06T03:47:20.328Z,13.97
2022-10-06T03:52:25.856Z,13.94
2022-10-06T03:57:30.528Z,13.92
2022-10-06T04:02:32.506Z,13.87
2022-10-06T04:07:34.572Z,13.79
2022-10-06T04:12:41.040Z,13.72
2022-10-06T04:17:42.686Z,13.78
2022-10-06T04:22:45.498Z,14.00
2022-10-06T04:27:48.661Z,14.13
2022-10-06T04:32:51.154Z,14.25
2022-10-06T04:37:56.695Z,14.33
2022-10-06T04:42:58.299Z,14.38
2022-10-06T04:48:00.766Z,14.39
2022-10-06T04:53:02.406Z,14.40
2022-10-06T04:58:04.140Z,14.39
2022-10-06T05:03:05.948Z,14.42
2022-10-06T05:08:10.219Z,14.44
2022-10-06T05:13:13.663Z,14.48
2022-10-06T05:18:15.644Z,14.53
2022-10-06T05:23:18.809Z,14.59
2022-10-06T05:28:22.671Z,14.61
2022-10-06T05:33:26.942Z,14.67
2022-10-06T05:38:29.338Z,14.67
2022-10-06T05:43:31.934Z,14.74
2022-10-06T05:48:33.980Z,14.83
2022-10-06T05:53:37.412Z,14.88
2022-10-06T05:58:44.451Z,14.93
2022-10-06T06:03:51.243Z,14.97
2022-10-06T06:09:00.457Z,15.00
2022-10-06T06:14:07.653Z,14.97
2022-10-06T06:19:11.287Z,14.39
2022-10-06T06:24:15.314Z,13.76
2022-10-06T06:29:19.443Z,13.10
2022-10-06T06:34:27.007Z,12.63
2022-10-06T06:39:29.247Z,12.14
2022-10-06T06:44:32.083Z,11.80
2022-10-06T06:49:38.188Z,11.65
2022-10-06T06:54:42.782Z,11.59
2022-10-06T06:59:48.309Z,11.51
2022-10-06T07:04:51.557Z,11.59
2022-10-06T07:09:55.017Z,11.78
2022-10-06T07:15:17.215Z,11.82
2022-10-06T07:20:44.480Z,12.12
2022-10-06T07:25:46.194Z,12.22
2022-10-06T07:30:48.812Z,12.21
2022-10-06T07:35:55.204Z,12.26
2022-10-06T07:41:18.257Z,12.28
2022-10-06T07:46:24.605Z,12.31
2022-10-06T07:51:46.531Z,12.44
2022-10-06T07:56:48.520Z,12.42
2022-10-06T08:01:52.570Z,12.66
2022-10-06T08:06:58.501Z,12.81
2022-10-06T08:12:20.031Z,12.93
2022-10-06T08:17:21.633Z,12.90
2022-10-06T08:22:27.360Z,12.94
2022-10-06T08:27:29.414Z,13.28
2022-10-06T08:32:32.194Z,13.53
2022-10-06T08:37:33.810Z,13.60
2022-10-06T08:42:46.053Z,13.72
2022-10-06T08:47:55.527Z,13.75
2022-10-06T08:53:14.137Z,13.69
2022-10-06T08:58:47.141Z,14.10
2022-10-06T09:03:51.963Z,14.23
2022-10-06T09:09:07.343Z,14.52
2022-10-06T09:14:17.622Z,14.44
2022-10-06T09:19:32.910Z,14.76
2022-10-06T09:24:47.076Z,15.74
2022-10-06T09:29:50.312Z,15.81
2022-10-06T09:34:59.608Z,15.89
2022-10-06T09:40:01.183Z,15.47
2022-10-06T09:45:23.805Z,15.42
2022-10-06T09:50:27.909Z,15.83
2022-10-06T09:55:43.329Z,15.78
2022-10-06T10:00:53.720Z,16.22
2022-10-06T10:05:55.447Z,16.86
2022-10-06T10:11:27.689Z,17.86
2022-10-06T10:16:35.065Z,17.03
2022-10-06T10:21:37.184Z,17.07
2022-10-06T10:26:57.129Z,16.82
2022-10-06T10:32:07.675Z,15.77
2022-10-06T10:37:12.299Z,16.18
2022-10-06T10:42:32.484Z,16.76
2022-10-06T10:47:34.237Z,16.89
2022-10-06T10:52:41.616Z,19.18
2022-10-06T10:57:46.044Z,20.56
2022-10-06T11:02:47.967Z,19.69
2022-10-06T11:08:06.354Z,20.63
2022-10-06T11:13:29.545Z,24.02
2022-10-06T11:18:35.435Z,25.04
2022-10-06T11:23:44.364Z,25.47
2022-10-06T11:28:59.889Z,26.17
2022-10-06T11:34:03.494Z,22.30
2022-10-06T11:39:23.881Z,23.08
2022-10-06T11:44:35.037Z,22.33
2022-10-06T11:49:49.757Z,22.88
2022-10-06T11:55:11.442Z,20.72
2022-10-06T12:00:16.067Z,21.17
2022-10-06T12:05:54.669Z,21.28
2022-10-06T12:10:51.563Z,21.79
2022-10-06T12:21:37.436Z,20.76
2022-10-06T12:27:25.770Z,20.24
2022-10-06T12:32:42.401Z,21.43
2022-10-06T12:37:53.917Z,21.38
2022-10-06T12:43:25.349Z,22.68
2022-10-06T12:48:30.245Z,24.81
2022-10-06T12:53:39.264Z,27.71
2022-10-06T12:58:42.039Z,28.82
2022-10-06T13:03:48.525Z,28.62
2022-10-06T13:09:14.929Z,24.29
2022-10-06T13:14:16.538Z,24.57
2022-10-06T13:19:29.503Z,25.70
2022-10-06T13:24:31.166Z,28.58
2022-10-06T13:29:32.827Z,29.04
2022-10-06T13:34:41.988Z,23.81
2022-10-06T13:39:43.608Z,21.33
2022-10-06T13:44:59.360Z,19.52
2022-10-06T13:50:06.994Z,18.10
2022-10-06T13:55:28.667Z,17.86
2022-10-06T14:00:32.943Z,17.66
2022-10-06T14:05:44.626Z,17.64
2022-10-06T14:11:12.516Z,17.65
2022-10-06T14:16:25.239Z,17.34
2022-10-06T14:21:36.821Z,17.24
2022-10-06T14:26:39.791Z,17.09
2022-10-06T14:31:41.402Z,16.61
2022-10-06T14:36:45.964Z,16.11
2022-10-06T14:41:47.596Z,16.17
2022-10-06T14:46:49.592Z,15.96
2022-10-06T14:51:53.786Z,15.61
2022-10-06T14:56:56.008Z,15.42
2022-10-06T15:01:57.560Z,15.46
2022-10-06T15:07:17.877Z,15.63
2022-10-06T15:12:19.425Z,15.46
2022-10-06T15:17:20.993Z,15.09
2022-10-06T15:22:22.678Z,14.86
2022-10-06T15:27:43.215Z,14.57
2022-10-06T15:32:44.752Z,14.37
2022-10-06T15:37:46.306Z,14.15
2022-10-06T15:42:50.112Z,13.79
2022-10-06T15:47:52.278Z,13.54
2022-10-06T15:52:53.839Z,13.38
2022-10-06T15:57:55.755Z,13.19
2022-10-06T16:02:57.378Z,12.96
2022-10-06T16:07:59.003Z,12.91
2022-10-06T16:13:00.635Z,12.91
2022-10-06T16:18:02.175Z,12.87
2022-10-06T16:23:03.761Z,12.45
2022-10-06T16:28:05.444Z,12.18
2022-10-06T16:33:07.082Z,11.94
2022-10-06T16:38:08.746Z,11.70
2022-10-06T16:43:10.292Z,11.31
2022-10-06T16:48:11.989Z,11.11
2022-10-06T16:53:16.813Z,10.81
2022-10-06T16:58:18.586Z,10.48
2022-10-06T17:03:20.249Z,10.22
2022-10-06T17:08:23.527Z,10.02
2022-10-06T17:13:25.074Z,9.81
2022-10-06T17:18:27.683Z,9.61
2022-10-06T17:23:30.295Z,9.30
2022-10-06T17:28:33.047Z,9.29
2022-10-06T17:33:38.733Z,9.09
2022-10-06T17:38:47.447Z,8.94
2022-10-06T17:43:50.577Z,8.75
2022-10-06T17:48:54.780Z,8.61
2022-10-06T17:53:58.289Z,8.59
2022-10-06T17:59:07.851Z,8.38
2022-10-06T18:04:16.889Z,8.40
2022-10-06T18:09:18.863Z,8.27
2022-10-06T18:14:22.150Z,8.12
2022-10-06T18:19:27.215Z,8.06
2022-10-06T18:24:31.013Z,7.97
2022-10-06T18:29:35.516Z,7.73
2022-10-06T18:40:08.881Z,7.72
2022-10-06T18:45:32.215Z,7.56
2022-10-06T18:50:35.921Z,7.45
2022-10-06T18:55:37.483Z,7.28
2022-10-06T19:00:39.507Z,7.16
2022-10-06T19:05:51.101Z,7.14
2022-10-06T19:11:13.931Z,7.18
2022-10-06T19:16:19.198Z,7.08
2022-10-06T19:21:21.045Z,6.96
2022-10-06T19:26:22.753Z,6.90
2022-10-06T19:31:24.440Z,6.83
2022-10-06T19:36:29.632Z,6.67
2022-10-06T19:41:49.658Z,6.65
2022-10-06T19:46:51.665Z,6.51
2022-10-06T19:51:54.687Z,6.40
2022-10-06T19:56:56.877Z,6.48
2022-10-06T20:01:58.485Z,6.36
2022-10-06T20:07:01.802Z,6.34
2022-10-06T20:12:03.695Z,6.23
2022-10-06T20:17:05.884Z,6.15
2022-10-06T20:22:07.595Z,6.07
2022-10-06T20:27:10.229Z,6.09
2022-10-06T20:32:11.921Z,6.02
2022-10-06T20:37:13.503Z,5.92
2022-10-06T20:42:15.681Z,5.75
2022-10-06T20:47:17.323Z,5.68
2022-10-06T20:52:18.938Z,5.61
2022-10-06T20:57:20.558Z,5.66
2022-10-06T21:02:25.051Z,5.53
2022-10-06T21:07:26.832Z,5.50
2022-10-06T21:12:28.580Z,5.38
2022-10-06T21:17:30.142Z,5.35
2022-10-06T21:22:31.717Z,5.34
2022-10-06T21:27:33.302Z,5.32
2022-10-06T21:32:34.873Z,5.21
2022-10-06T21:37:36.468Z,5.16
2022-10-06T21:42:38.096Z,5.08
2022-10-06T21:47:39.662Z,5.05
2022-10-06T21:52:41.279Z,4.93
2022-10-06T21:57:45.824Z,4.89
2022-10-06T22:02:47.765Z,4.91
2022-10-06T22:07:49.433Z,4.89
2022-10-06T22:12:51.102Z,4.81
2022-10-06T22:17:52.767Z,4.86
2022-10-06T22:22:54.349Z,4.77
2022-10-06T22:27:55.904Z,4.62
2022-10-06T22:32:57.555Z,4.56
2022-10-06T22:37:59.143Z,4.39
2022-10-06T22:43:00.735Z,4.42
2022-10-06T22:48:02.317Z,4.40
2022-10-06T22:53:03.995Z,4.33
2022-10-06T22:58:05.627Z,4.20
2022-10-06T23:03:07.838Z,4.18
2022-10-06T23:08:09.506Z,4.16
2022-10-06T23:13:11.104Z,4.10
2022-10-06T23:18:13.591Z,4.15
2022-10-06T23:23:15.314Z,4.11
2022-10-06T23:28:16.944Z,4.10
2022-10-06T23:33:18.623Z,4.03
2022-10-06T23:38:20.197Z,3.97
2022-10-06T23:43:23.057Z,3.86
2022-10-06T23:48:24.742Z,3.83
2022-10-06T23:53:27.092Z,3.80
2022-10-06T23:58:28.961Z,3.81
